Time;durP1;ratioP1;P1;durP2;ratioP2;P2;SDS_P1;SDS_P2;PMS_P1;PMS_P2;Temp;Humidity;BMP_temperature;BMP_pressure;BME280_temperature;BME280_humidity;BME280_pressure;Samples;Min_cycle;Max_cycle;Signal;HPM_P1;HPM_P2
2021/12/11 00:02:11;;;;;;;;;;;20.50;53.90;;;;;;5030818;28;1269;-72
2021/12/11 00:04:38;;;;;;;;;;;20.50;54.00;;;;;;5031415;28;1374;-71
2021/12/11 00:07:08;;;;;;;;;;;20.50;54.00;;;;;;5032203;28;1198;-71
2021/12/11 00:09:46;;;;;;;;;;;20.50;54.00;;;;;;5030995;28;1380;-71
2021/12/11 00:12:14;;;;;;;;;;;20.50;54.00;;;;;;5030713;28;1080;-71
2021/12/11 00:14:40;;;;;;;;;;;20.50;54.10;;;;;;5032284;28;1895;-71
2021/12/11 00:17:06;;;;;;;;;;;20.50;54.10;;;;;;5029552;28;1348;-71
2021/12/11 00:19:32;;;;;;;;;;;20.50;54.10;;;;;;5022815;28;1672;-72
2021/12/11 00:22:23;;;;;;;;;;;20.50;54.10;;;;;;5031820;28;1096;-72
2021/12/11 00:24:49;;;;;;;;;;;20.40;54.10;;;;;;5029108;28;1328;-71
2021/12/11 00:27:16;;;;;;;;;;;20.40;54.10;;;;;;5032219;28;1224;-71
2021/12/11 00:29:41;;;;;;;;;;;20.40;54.20;;;;;;5031986;28;1382;-72
2021/12/11 00:32:07;;;;;;;;;;;20.40;54.20;;;;;;5032169;28;1084;-71
2021/12/11 00:34:32;;;;;;;;;;;20.40;54.20;;;;;;5031871;28;1898;-71
2021/12/11 00:36:59;;;;;;;;;;;20.40;54.30;;;;;;5031908;28;1073;-71
2021/12/11 00:39:24;;;;;;;;;;;20.40;54.20;;;;;;5031983;28;1365;-71
2021/12/11 00:41:54;;;;;;;;;;;20.40;54.30;;;;;;5014120;28;1179;-71
2021/12/11 00:44:21;;;;;;;;;;;20.40;54.30;;;;;;5030787;28;1308;-71
2021/12/11 00:46:46;;;;;;;;;;;20.40;54.30;;;;;;5031925;28;1290;-71
2021/12/11 00:49:12;;;;;;;;;;;20.40;54.30;;;;;;5030415;28;1358;-70
2021/12/11 00:51:37;;;;;;;;;;;20.40;54.30;;;;;;5031669;28;1360;-70
2021/12/11 00:54:03;;;;;;;;;;;20.40;54.30;;;;;;5031691;28;1902;-71
2021/12/11 00:56:33;;;;;;;;;;;20.40;54.40;;;;;;5030711;28;1331;-71
2021/12/11 00:59:00;;;;;;;;;;;20.40;54.40;;;;;;5031722;28;1285;-70
2021/12/11 01:01:28;;;;;;;;;;;20.40;54.40;;;;;;5013995;28;1296;-72
2021/12/11 01:03:58;;;;;;;;;;;20.30;54.30;;;;;;5031583;28;1359;-71
2021/12/11 01:06:24;;;;;;;;;;;20.40;54.40;;;;;;5030442;28;1327;-71
2021/12/11 01:08:57;;;;;;;;;;;20.40;54.40;;;;;;5033359;28;1335;-72
2021/12/11 01:11:42;;;;;;;;;;;20.40;54.40;;;;;;5035187;28;1021;-70
2021/12/11 01:14:23;;;;;;;;;;;20.40;54.40;;;;;;5034881;28;1965;-70
2021/12/11 01:17:02;;;;;;;;;;;20.30;54.30;;;;;;5034801;28;1155;-72
2021/12/11 01:19:28;;;;;;;;;;;20.30;54.30;;;;;;5025375;28;1315;-71
2021/12/11 01:21:57;;;;;;;;;;;20.30;54.30;;;;;;5017129;28;1298;-71
2021/12/11 01:24:31;;;;;;;;;;;20.30;54.30;;;;;;5001525;28;1352;-72
2021/12/11 01:26:58;;;;;;;;;;;20.30;54.40;;;;;;5035321;28;1289;-72
2021/12/11 01:29:23;;;;;;;;;;;20.30;54.40;;;;;;5035238;28;1288;-72
2021/12/11 01:31:49;;;;;;;;;;;20.30;54.40;;;;;;5017355;28;1367;-72
2021/12/11 01:34:15;;;;;;;;;;;20.30;54.50;;;;;;5035219;28;1905;-72
2021/12/11 01:36:40;;;;;;;;;;;20.30;54.50;;;;;;5017271;28;1411;-71
2021/12/11 01:39:07;;;;;;;;;;;20.30;54.50;;;;;;5017606;28;1290;-72
2021/12/11 01:41:32;;;;;;;;;;;20.30;54.50;;;;;;5034584;28;1276;-71
2021/12/11 01:43:58;;;;;;;;;;;20.30;54.50;;;;;;5033906;28;1136;-72
2021/12/11 01:46:24;;;;;;;;;;;20.30;54.50;;;;;;5035138;28;1308;-72
2021/12/11 01:48:53;;;;;;;;;;;20.30;54.50;;;;;;5034928;28;1291;-72
2021/12/11 01:51:39;;;;;;;;;;;20.30;54.50;;;;;;5061082;22;2616;-68
2021/12/11 01:54:12;;;;;;;;;;;20.30;54.50;;;;;;5035941;28;1903;-68
2021/12/11 01:56:37;;;;;;;;;;;20.30;54.50;;;;;;5054813;28;1350;-68
2021/12/11 01:59:04;;;;;;;;;;;20.30;54.50;;;;;;5037015;28;1729;-68
2021/12/11 02:01:35;;;;;;;;;;;20.30;54.50;;;;;;5036827;28;1691;-68
2021/12/11 02:04:01;;;;;;;;;;;20.30;54.50;;;;;;5020399;28;1658;-68
2021/12/11 02:06:27;;;;;;;;;;;20.30;54.50;;;;;;5036855;28;1426;-68
2021/12/11 02:08:52;;;;;;;;;;;20.30;54.50;;;;;;5036763;28;1668;-68
2021/12/11 02:11:20;;;;;;;;;;;20.30;54.50;;;;;;5054460;28;1704;-68
2021/12/11 02:13:52;;;;;;;;;;;20.30;54.50;;;;;;5036613;28;1975;-68
2021/12/11 02:16:23;;;;;;;;;;;20.30;54.50;;;;;;5054577;28;1413;-68
2021/12/11 02:18:49;;;;;;;;;;;20.30;54.50;;;;;;5004539;28;1722;-69
2021/12/11 02:21:17;;;;;;;;;;;20.30;54.60;;;;;;5035048;28;1281;-68
2021/12/11 02:23:42;;;;;;;;;;;20.30;54.50;;;;;;5053545;28;1422;-68
2021/12/11 02:26:10;;;;;;;;;;;20.30;54.50;;;;;;5036582;28;1643;-68
2021/12/11 02:28:37;;;;;;;;;;;20.30;54.60;;;;;;5054113;28;1324;-68
2021/12/11 02:31:08;;;;;;;;;;;20.30;54.60;;;;;;5053106;28;1655;-68
2021/12/11 02:33:35;;;;;;;;;;;20.30;54.60;;;;;;5049427;28;1898;-69
2021/12/11 02:36:09;;;;;;;;;;;20.30;54.50;;;;;;5025431;28;1416;-69
2021/12/11 02:38:39;;;;;;;;;;;20.30;54.60;;;;;;5027232;28;1066;-68
2021/12/11 02:41:07;;;;;;;;;;;20.30;54.60;;;;;;5027471;28;1345;-68
2021/12/11 02:43:37;;;;;;;;;;;20.30;54.60;;;;;;5028983;28;1192;-68
2021/12/11 02:46:02;;;;;;;;;;;20.30;54.60;;;;;;5044948;28;1565;-68
2021/12/11 02:48:30;;;;;;;;;;;20.30;54.60;;;;;;5026444;28;1204;-68
2021/12/11 02:50:58;;;;;;;;;;;20.30;54.60;;;;;;5043717;28;1280;-68
2021/12/11 02:53:34;;;;;;;;;;;20.30;54.50;;;;;;5044285;28;1906;-69
2021/12/11 02:56:02;;;;;;;;;;;20.30;54.50;;;;;;5011351;28;1499;-68
2021/12/11 02:58:29;;;;;;;;;;;20.30;54.50;;;;;;5043240;28;1188;-68
2021/12/11 03:00:55;;;;;;;;;;;20.30;54.60;;;;;;5044625;28;1379;-68
2021/12/11 03:03:27;;;;;;;;;;;20.30;54.50;;;;;;5043919;28;1282;-69
2021/12/11 03:06:16;;;;;;;;;;;20.40;54.50;;;;;;5035871;28;1630;-68
2021/12/11 03:08:42;;;;;;;;;;;20.40;54.50;;;;;;5039070;28;1311;-68
2021/12/11 03:11:10;;;;;;;;;;;20.30;54.50;;;;;;5052722;28;1749;-68
2021/12/11 03:13:38;;;;;;;;;;;20.30;54.50;;;;;;5053143;28;1977;-67
2021/12/11 03:16:04;;;;;;;;;;;20.40;54.50;;;;;;5053311;28;1752;-68
2021/12/11 03:18:29;;;;;;;;;;;20.30;54.50;;;;;;5035261;28;1389;-68
2021/12/11 03:20:55;;;;;;;;;;;20.40;54.50;;;;;;5052596;28;1506;-68
2021/12/11 03:23:20;;;;;;;;;;;20.30;54.50;;;;;;5052872;28;1665;-68
2021/12/11 03:25:46;;;;;;;;;;;20.30;54.50;;;;;;5035121;28;1354;-68
2021/12/11 03:28:12;;;;;;;;;;;20.40;54.60;;;;;;5035200;28;1505;-68
2021/12/11 03:30:39;;;;;;;;;;;20.30;54.50;;;;;;5052367;28;1377;-68
2021/12/11 03:33:06;;;;;;;;;;;20.30;54.50;;;;;;5052529;28;1894;-67
2021/12/11 03:35:32;;;;;;;;;;;20.30;54.50;;;;;;5053149;28;1389;-67
2021/12/11 03:37:57;;;;;;;;;;;20.30;54.50;;;;;;5052705;28;1425;-68
2021/12/11 03:40:23;;;;;;;;;;;20.30;54.60;;;;;;5052669;28;1362;-67
2021/12/11 03:42:48;;;;;;;;;;;20.30;54.60;;;;;;5052476;28;1264;-67
2021/12/11 03:45:20;;;;;;;;;;;20.30;54.60;;;;;;5035247;28;1609;-67
2021/12/11 03:47:47;;;;;;;;;;;20.30;54.60;;;;;;5034868;28;1172;-67
2021/12/11 03:50:13;;;;;;;;;;;20.30;54.60;;;;;;5052666;28;1664;-67
2021/12/11 03:52:39;;;;;;;;;;;20.30;54.60;;;;;;5052275;28;1910;-68
2021/12/11 03:55:05;;;;;;;;;;;20.30;54.60;;;;;;5052739;28;1243;-68
2021/12/11 03:57:30;;;;;;;;;;;20.30;54.60;;;;;;5052773;28;1393;-68
2021/12/11 03:59:56;;;;;;;;;;;20.30;54.70;;;;;;5034910;28;1362;-68
2021/12/11 04:02:23;;;;;;;;;;;20.30;54.70;;;;;;5052198;28;1424;-67
2021/12/11 04:04:49;;;;;;;;;;;20.20;54.60;;;;;;5035213;28;961;-67
2021/12/11 04:07:16;;;;;;;;;;;20.30;54.70;;;;;;5052336;28;1439;-68
2021/12/11 04:09:42;;;;;;;;;;;20.20;54.70;;;;;;5052743;28;1426;-67
2021/12/11 04:12:08;;;;;;;;;;;20.20;54.70;;;;;;5052162;28;1740;-68
2021/12/11 04:14:35;;;;;;;;;;;20.20;54.70;;;;;;5052422;28;1894;-68
2021/12/11 04:17:00;;;;;;;;;;;20.20;54.70;;;;;;5033942;28;1335;-68
2021/12/11 04:19:26;;;;;;;;;;;20.20;54.70;;;;;;5052701;28;1706;-68
2021/12/11 04:21:51;;;;;;;;;;;20.20;54.70;;;;;;5051709;28;1392;-68
2021/12/11 04:24:18;;;;;;;;;;;20.20;54.80;;;;;;5034793;28;1380;-66
2021/12/11 04:26:43;;;;;;;;;;;20.20;54.80;;;;;;5034420;28;1644;-66
2021/12/11 04:29:09;;;;;;;;;;;20.20;54.80;;;;;;5034659;28;1132;-67
2021/12/11 04:31:34;;;;;;;;;;;20.20;54.80;;;;;;5052013;28;1634;-67
2021/12/11 04:34:02;;;;;;;;;;;20.20;54.80;;;;;;5052265;28;1898;-66
2021/12/11 04:36:30;;;;;;;;;;;20.20;54.80;;;;;;5052321;28;1250;-66
2021/12/11 04:38:56;;;;;;;;;;;20.20;54.90;;;;;;5034513;28;1377;-66
2021/12/11 04:41:29;;;;;;;;;;;20.20;54.80;;;;;;5052109;28;1829;-66
2021/12/11 04:43:55;;;;;;;;;;;20.20;54.80;;;;;;5055851;28;1409;-67
2021/12/11 04:46:20;;;;;;;;;;;20.20;54.90;;;;;;5038325;28;1505;-67
2021/12/11 04:48:57;;;;;;;;;;;20.20;54.90;;;;;;5038047;28;1381;-67
2021/12/11 04:51:28;;;;;;;;;;;20.20;54.90;;;;;;5055703;28;1391;-67
2021/12/11 05:05:06;;;;;;;;;;;20.20;55.00;;;;;;5040847;28;1455;-68
2021/12/11 05:07:56;;;;;;;;;;;20.20;54.90;;;;;;5055540;28;1443;-67
2021/12/11 05:10:29;;;;;;;;;;;20.20;54.90;;;;;;5055545;28;1688;-68
2021/12/11 05:12:55;;;;;;;;;;;20.20;55.00;;;;;;5054572;28;1910;-68
2021/12/11 05:15:22;;;;;;;;;;;20.20;54.90;;;;;;5054963;28;1498;-67
2021/12/11 05:17:47;;;;;;;;;;;20.20;54.90;;;;;;5054903;28;1653;-68
2021/12/11 05:20:13;;;;;;;;;;;20.30;54.80;;;;;;5055352;28;1299;-68
2021/12/11 05:22:39;;;;;;;;;;;20.40;54.70;;;;;;5037499;28;1462;-67
2021/12/11 05:25:05;;;;;;;;;;;20.40;54.60;;;;;;5055502;28;1809;-67
2021/12/11 05:27:30;;;;;;;;;;;20.50;54.40;;;;;;5055478;28;1375;-67
2021/12/11 05:29:56;;;;;;;;;;;20.60;54.30;;;;;;5055267;28;1385;-68
2021/12/11 05:32:22;;;;;;;;;;;20.70;54.10;;;;;;5037288;28;1599;-68
2021/12/11 05:34:47;;;;;;;;;;;20.70;53.90;;;;;;5055113;28;1894;-67
2021/12/11 05:37:13;;;;;;;;;;;20.80;53.80;;;;;;5037714;28;1398;-67
2021/12/11 05:39:38;;;;;;;;;;;20.80;53.60;;;;;;5055247;28;1443;-67
2021/12/11 05:42:04;;;;;;;;;;;20.90;53.50;;;;;;5054790;28;1410;-69
2021/12/11 05:44:29;;;;;;;;;;;20.90;53.40;;;;;;5055336;28;1385;-69
2021/12/11 05:46:55;;;;;;;;;;;21.00;53.30;;;;;;5055163;28;1358;-69
2021/12/11 05:49:20;;;;;;;;;;;21.00;53.10;;;;;;5036999;28;1409;-69
2021/12/11 05:51:46;;;;;;;;;;;21.00;53.00;;;;;;5054624;28;1369;-69
2021/12/11 05:54:14;;;;;;;;;;;21.10;53.00;;;;;;5036274;28;1906;-68
2021/12/11 05:56:41;;;;;;;;;;;21.10;53.00;;;;;;5055055;28;1158;-67
2021/12/11 05:59:07;;;;;;;;;;;21.10;52.90;;;;;;5037208;28;1351;-68
2021/12/11 06:01:53;;;;;;;;;;;21.10;52.80;;;;;;5036752;28;1441;-69
2021/12/11 06:04:24;;;;;;;;;;;21.20;52.80;;;;;;5054872;28;1422;-69
2021/12/11 06:06:49;;;;;;;;;;;21.20;52.80;;;;;;5037359;28;1256;-69
2021/12/11 06:09:15;;;;;;;;;;;21.20;52.80;;;;;;5037109;28;1458;-69
2021/12/11 06:11:41;;;;;;;;;;;21.20;52.80;;;;;;5054649;28;1338;-69
2021/12/11 06:14:06;;;;;;;;;;;21.20;52.80;;;;;;5036849;28;1894;-69
2021/12/11 06:16:32;;;;;;;;;;;21.20;52.70;;;;;;5054657;28;1595;-68
2021/12/11 06:19:02;;;;;;;;;;;21.10;52.70;;;;;;5054418;28;1635;-68
2021/12/11 06:21:28;;;;;;;;;;;21.10;52.70;;;;;;5054139;28;1495;-68
2021/12/11 06:23:53;;;;;;;;;;;21.20;52.80;;;;;;5054332;28;1466;-68
2021/12/11 06:26:19;;;;;;;;;;;21.20;52.70;;;;;;5054611;28;1362;-68
2021/12/11 06:28:44;;;;;;;;;;;21.10;52.70;;;;;;5054118;28;1419;-68
2021/12/11 06:31:17;;;;;;;;;;;21.20;52.70;;;;;;5053916;28;1408;-67
2021/12/11 06:33:43;;;;;;;;;;;21.20;52.80;;;;;;5054126;28;1894;-68
2021/12/11 06:36:10;;;;;;;;;;;21.10;52.70;;;;;;5054276;28;1644;-68
2021/12/11 06:38:36;;;;;;;;;;;21.20;52.70;;;;;;5036634;28;1143;-68
2021/12/11 06:41:01;;;;;;;;;;;21.20;52.70;;;;;;5053838;28;1364;-68
2021/12/11 06:43:27;;;;;;;;;;;21.20;52.80;;;;;;5053931;28;1388;-67
2021/12/11 06:45:52;;;;;;;;;;;21.20;52.70;;;;;;5036206;28;1362;-67
2021/12/11 06:48:18;;;;;;;;;;;21.20;52.70;;;;;;5054045;28;1354;-68
2021/12/11 06:50:44;;;;;;;;;;;21.20;52.70;;;;;;5053702;28;1548;-68
2021/12/11 06:53:11;;;;;;;;;;;21.10;52.70;;;;;;5035825;28;1983;-68
2021/12/11 06:55:37;;;;;;;;;;;21.10;52.70;;;;;;5036188;28;1683;-68
2021/12/11 06:58:02;;;;;;;;;;;21.10;52.70;;;;;;5053732;28;1673;-68
2021/12/11 07:00:28;;;;;;;;;;;21.10;52.80;;;;;;5035931;28;1553;-68
2021/12/11 07:02:54;;;;;;;;;;;21.10;52.80;;;;;;5053301;28;1370;-69
2021/12/11 07:05:19;;;;;;;;;;;21.10;52.80;;;;;;5053644;28;1719;-68
2021/12/11 07:07:46;;;;;;;;;;;21.10;52.80;;;;;;5053643;28;1804;-68
2021/12/11 07:10:13;;;;;;;;;;;21.10;52.80;;;;;;5053597;28;1394;-68
2021/12/11 07:12:39;;;;;;;;;;;21.10;52.80;;;;;;5053108;28;1942;-68
2021/12/11 07:15:05;;;;;;;;;;;21.10;52.80;;;;;;5035767;28;1489;-68
2021/12/11 07:17:30;;;;;;;;;;;21.10;52.80;;;;;;5043346;28;2184;-68
2021/12/11 07:19:56;;;;;;;;;;;21.10;52.80;;;;;;5050409;28;1565;-71
2021/12/11 07:22:21;;;;;;;;;;;21.10;52.90;;;;;;5046673;28;1411;-68
2021/12/11 07:24:52;;;;;;;;;;;21.10;52.90;;;;;;5022323;28;952;-68
2021/12/11 07:27:18;;;;;;;;;;;21.10;52.90;;;;;;5035486;28;863;-67
2021/12/11 07:29:43;;;;;;;;;;;21.10;53.00;;;;;;5053160;28;1538;-67
2021/12/11 07:32:09;;;;;;;;;;;21.10;52.90;;;;;;5052575;28;1288;-68
2021/12/11 07:34:34;;;;;;;;;;;21.00;52.90;;;;;;5052981;28;2032;-69
2021/12/11 07:37:02;;;;;;;;;;;21.00;52.90;;;;;;5053396;28;1716;-70
2021/12/11 07:39:27;;;;;;;;;;;21.00;53.00;;;;;;5035479;28;1608;-69
2021/12/11 07:41:53;;;;;;;;;;;21.00;53.00;;;;;;5052648;28;1549;-71
2021/12/11 07:44:18;;;;;;;;;;;21.00;53.00;;;;;;5034977;28;1608;-70
2021/12/11 07:46:44;;;;;;;;;;;21.00;53.00;;;;;;5053236;28;1395;-69
2021/12/11 07:49:09;;;;;;;;;;;21.00;53.00;;;;;;5053174;28;1480;-69
2021/12/11 07:51:35;;;;;;;;;;;21.00;53.00;;;;;;5051049;23;3701;-68
2021/12/11 07:54:01;;;;;;;;;;;21.00;53.00;;;;;;5046842;28;1980;-69
2021/12/11 07:56:26;;;;;;;;;;;21.00;53.10;;;;;;5034786;28;1338;-71
2021/12/11 07:58:52;;;;;;;;;;;21.10;53.10;;;;;;5048733;28;2129;-70
2021/12/11 08:01:18;;;;;;;;;;;21.20;53.00;;;;;;5042579;28;1382;-70
2021/12/11 08:03:43;;;;;;;;;;;21.20;52.90;;;;;;5048328;28;1731;-70
2021/12/11 08:06:09;;;;;;;;;;;21.30;52.80;;;;;;5033073;28;1691;-71
2021/12/11 08:08:34;;;;;;;;;;;21.40;52.60;;;;;;5032858;28;1676;-70
2021/12/11 08:11:00;;;;;;;;;;;21.50;52.40;;;;;;5047882;28;1427;-68
2021/12/11 08:13:26;;;;;;;;;;;21.70;52.30;;;;;;5032713;28;1918;-71
2021/12/11 08:15:54;;;;;;;;;;;21.80;52.00;;;;;;5033039;28;1390;-70
2021/12/11 08:18:20;;;;;;;;;;;21.90;51.80;;;;;;5038600;28;1436;-69
2021/12/11 08:20:46;;;;;;;;;;;22.00;51.60;;;;;;5036620;28;1399;-70
2021/12/11 08:23:11;;;;;;;;;;;22.10;52.00;;;;;;5035476;28;1709;-71
2021/12/11 08:25:37;;;;;;;;;;;22.10;51.20;;;;;;5036686;28;1714;-71
2021/12/11 08:28:03;;;;;;;;;;;22.20;51.10;;;;;;5036688;28;1284;-71
2021/12/11 08:30:29;;;;;;;;;;;22.30;50.90;;;;;;5035537;28;1630;-70
2021/12/11 08:32:54;;;;;;;;;;;22.30;50.70;;;;;;5036335;28;1894;-69
2021/12/11 08:35:20;;;;;;;;;;;22.40;50.60;;;;;;5036717;28;1382;-71
2021/12/11 08:37:47;;;;;;;;;;;22.40;50.50;;;;;;5036475;28;1418;-71
2021/12/11 08:40:13;;;;;;;;;;;22.50;50.40;;;;;;5036330;28;1377;-70
2021/12/11 08:42:39;;;;;;;;;;;22.50;50.30;;;;;;5034328;28;1365;-70
2021/12/11 08:45:06;;;;;;;;;;;22.60;50.20;;;;;;5036516;28;1417;-71
2021/12/11 08:47:36;;;;;;;;;;;22.60;50.20;;;;;;5051495;28;1616;-71
2021/12/11 08:50:02;;;;;;;;;;;22.60;50.10;;;;;;5051782;28;1170;-71
2021/12/11 08:52:29;;;;;;;;;;;22.70;50.10;;;;;;5035436;28;1429;-70
2021/12/11 08:54:55;;;;;;;;;;;22.70;50.10;;;;;;5051582;28;1961;-70
2021/12/11 08:57:22;;;;;;;;;;;22.70;50.10;;;;;;5051495;28;1178;-70
2021/12/11 08:59:48;;;;;;;;;;;22.70;50.00;;;;;;5051588;28;1169;-71
2021/12/11 09:02:16;;;;;;;;;;;22.70;50.10;;;;;;5035765;28;1707;-69
2021/12/11 09:04:46;;;;;;;;;;;22.70;50.00;;;;;;5036035;28;1412;-70
2021/12/11 09:07:14;;;;;;;;;;;22.70;50.10;;;;;;5035768;28;1309;-70
2021/12/11 09:09:47;;;;;;;;;;;22.70;50.20;;;;;;5035839;28;1270;-71
2021/12/11 09:12:12;;;;;;;;;;;22.70;50.20;;;;;;5034221;28;1456;-70
2021/12/11 09:14:43;;;;;;;;;;;22.80;50.20;;;;;;5035629;28;1954;-70
2021/12/11 09:17:09;;;;;;;;;;;22.70;50.30;;;;;;5031452;28;1183;-70
2021/12/11 09:19:39;;;;;;;;;;;22.70;50.30;;;;;;5041252;28;1369;-70
2021/12/11 09:22:11;;;;;;;;;;;22.70;50.20;;;;;;5034803;28;1373;-70
2021/12/11 09:24:42;;;;;;;;;;;22.70;50.20;;;;;;5035491;28;1510;-70
2021/12/11 09:27:12;;;;;;;;;;;22.60;50.20;;;;;;5035516;28;1137;-70
2021/12/11 09:29:40;;;;;;;;;;;22.60;50.30;;;;;;5034181;28;1079;-70
2021/12/11 09:32:17;;;;;;;;;;;22.60;50.30;;;;;;5033726;28;1299;-70
2021/12/11 09:34:44;;;;;;;;;;;22.60;50.30;;;;;;5035289;28;1964;-70
2021/12/11 09:37:10;;;;;;;;;;;22.60;50.40;;;;;;5031597;28;1922;-71
2021/12/11 09:39:35;;;;;;;;;;;22.60;50.40;;;;;;5033763;28;1104;-70
2021/12/11 09:42:00;;;;;;;;;;;22.60;50.50;;;;;;5033490;28;1400;-70
2021/12/11 09:44:33;;;;;;;;;;;22.50;50.50;;;;;;5035076;28;1195;-70
2021/12/11 09:47:10;;;;;;;;;;;22.50;50.50;;;;;;5035015;28;1177;-70
2021/12/11 09:49:37;;;;;;;;;;;22.50;50.60;;;;;;5031434;28;1054;-70
2021/12/11 09:52:15;;;;;;;;;;;22.40;50.70;;;;;;5034442;28;1350;-71
2021/12/11 09:54:40;;;;;;;;;;;22.40;50.70;;;;;;5048763;28;1906;-70
2021/12/11 09:57:07;;;;;;;;;;;22.40;50.80;;;;;;5033455;28;1385;-70
2021/12/11 09:59:33;;;;;;;;;;;22.40;50.90;;;;;;5034996;28;1306;-70
2021/12/11 10:02:03;;;;;;;;;;;22.40;51.00;;;;;;5050052;28;1387;-70
2021/12/11 10:04:32;;;;;;;;;;;22.30;51.00;;;;;;5034843;28;1388;-70
2021/12/11 10:09:36;;;;;;;;;;;22.30;51.00;;;;;;5034508;28;1338;-71
2021/12/11 10:12:06;;;;;;;;;;;22.30;51.00;;;;;;5030457;28;1701;-71
2021/12/11 10:14:33;;;;;;;;;;;22.30;51.30;;;;;;5032995;28;1949;-70
2021/12/11 10:16:59;;;;;;;;;;;22.40;51.10;;;;;;5048238;28;1768;-70
2021/12/11 10:19:29;;;;;;;;;;;22.40;51.00;;;;;;5023395;28;1295;-70
2021/12/11 10:22:14;;;;;;;;;;;22.40;51.00;;;;;;5033988;28;1275;-70
2021/12/11 10:24:41;;;;;;;;;;;22.50;51.00;;;;;;5034020;28;1294;-70
2021/12/11 10:27:07;;;;;;;;;;;22.50;51.50;;;;;;5034117;28;1055;-70
2021/12/11 10:29:32;;;;;;;;;;;22.60;50.90;;;;;;5034304;28;1207;-70
2021/12/11 10:31:59;;;;;;;;;;;22.60;50.80;;;;;;5032558;28;1314;-70
2021/12/11 10:34:25;;;;;;;;;;;22.60;50.70;;;;;;5032830;28;1930;-70
2021/12/11 10:37:11;;;;;;;;;;;22.60;50.70;;;;;;5033997;28;1337;-70
2021/12/11 10:39:37;;;;;;;;;;;22.60;50.60;;;;;;5033195;28;1243;-70
2021/12/11 10:42:02;;;;;;;;;;;22.60;50.60;;;;;;5034408;28;1209;-70
2021/12/11 10:44:29;;;;;;;;;;;22.60;50.60;;;;;;5033986;28;1380;-70
2021/12/11 10:46:57;;;;;;;;;;;22.60;50.50;;;;;;5032841;28;1298;-70
2021/12/11 10:49:22;;;;;;;;;;;22.60;50.60;;;;;;5032376;28;1310;-70
2021/12/11 10:51:52;;;;;;;;;;;22.60;50.50;;;;;;5033163;28;1276;-70
2021/12/11 10:54:18;;;;;;;;;;;22.60;50.60;;;;;;5049149;28;1901;-70
2021/12/11 10:56:43;;;;;;;;;;;22.60;50.60;;;;;;5034007;28;1333;-70
2021/12/11 10:59:10;;;;;;;;;;;22.60;50.70;;;;;;5015847;28;1584;-70
2021/12/11 11:01:43;;;;;;;;;;;22.60;50.60;;;;;;5021814;28;1645;-70
2021/12/11 11:04:13;;;;;;;;;;;22.60;50.70;;;;;;5033114;28;1756;-70
2021/12/11 11:06:40;;;;;;;;;;;22.60;50.70;;;;;;5034011;28;1306;-70
2021/12/11 11:09:05;;;;;;;;;;;22.50;50.70;;;;;;5048593;28;1446;-70
2021/12/11 11:11:31;;;;;;;;;;;22.50;50.70;;;;;;5048660;28;1343;-70
2021/12/11 11:13:56;;;;;;;;;;;22.50;50.80;;;;;;5017920;28;2058;-69
2021/12/11 11:16:22;;;;;;;;;;;22.50;50.80;;;;;;5016765;28;2252;-70
2021/12/11 11:18:47;;;;;;;;;;;22.50;50.80;;;;;;5032579;28;1609;-70
2021/12/11 11:21:14;;;;;;;;;;;22.50;50.90;;;;;;5032858;28;1362;-70
2021/12/11 11:23:40;;;;;;;;;;;22.50;50.90;;;;;;5048690;28;1341;-70
2021/12/11 11:26:08;;;;;;;;;;;22.50;51.00;;;;;;5033336;28;1271;-70
2021/12/11 11:28:34;;;;;;;;;;;22.50;51.00;;;;;;5033438;28;1309;-70
2021/12/11 11:31:01;;;;;;;;;;;22.50;51.00;;;;;;5032615;28;1389;-70
2021/12/11 11:33:28;;;;;;;;;;;22.40;51.00;;;;;;5033136;28;1959;-70
2021/12/11 11:35:53;;;;;;;;;;;22.40;51.10;;;;;;5048435;28;1652;-70
2021/12/11 11:38:24;;;;;;;;;;;22.40;51.10;;;;;;5048697;28;1277;-70
2021/12/11 11:40:50;;;;;;;;;;;22.40;51.70;;;;;;5048204;28;1314;-70
2021/12/11 11:43:16;;;;;;;;;;;22.40;51.20;;;;;;5033266;28;1368;-69
2021/12/11 11:45:41;;;;;;;;;;;22.40;51.10;;;;;;5032708;28;1265;-71
2021/12/11 11:48:07;;;;;;;;;;;22.30;51.10;;;;;;5033133;28;1361;-71
2021/12/11 11:50:37;;;;;;;;;;;22.40;51.20;;;;;;5032666;28;1295;-70
2021/12/11 11:53:03;;;;;;;;;;;22.40;51.30;;;;;;5031888;28;1902;-70
2021/12/11 11:55:31;;;;;;;;;;;22.30;51.20;;;;;;5032763;28;1493;-70
2021/12/11 11:57:57;;;;;;;;;;;22.30;51.20;;;;;;5033024;28;1155;-70
2021/12/11 12:00:30;;;;;;;;;;;22.40;51.30;;;;;;5047917;28;1317;-70
2021/12/11 12:02:55;;;;;;;;;;;22.40;51.30;;;;;;5032548;28;1388;-70
2021/12/11 12:05:21;;;;;;;;;;;22.40;51.20;;;;;;5031524;28;1075;-70
2021/12/11 12:07:47;;;;;;;;;;;22.40;51.20;;;;;;5031690;28;1076;-70
2021/12/11 12:10:17;;;;;;;;;;;22.40;51.10;;;;;;5031473;28;1375;-70
2021/12/11 12:12:42;;;;;;;;;;;22.50;51.10;;;;;;5032233;28;1308;-70
2021/12/11 12:15:09;;;;;;;;;;;22.50;51.10;;;;;;5031802;28;1903;-70
2021/12/11 12:17:34;;;;;;;;;;;22.50;51.00;;;;;;5032779;28;1270;-70
2021/12/11 12:20:00;;;;;;;;;;;22.50;50.90;;;;;;5032645;28;1352;-70
2021/12/11 12:22:26;;;;;;;;;;;22.50;50.90;;;;;;5030839;28;1676;-70
2021/12/11 12:24:51;;;;;;;;;;;22.50;50.90;;;;;;5031405;28;1142;-72
2021/12/11 12:27:18;;;;;;;;;;;22.50;50.90;;;;;;5032542;28;1392;-70
2021/12/11 12:29:43;;;;;;;;;;;22.60;50.90;;;;;;5031363;28;1335;-72
2021/12/11 12:32:19;;;;;;;;;;;22.60;50.90;;;;;;5031028;28;1366;-70
2021/12/11 12:34:45;;;;;;;;;;;22.60;50.90;;;;;;5032515;28;1910;-70
2021/12/11 12:37:11;;;;;;;;;;;22.60;50.90;;;;;;5032489;28;1083;-70
2021/12/11 12:39:38;;;;;;;;;;;22.50;50.80;;;;;;5032392;28;1374;-71
2021/12/11 12:42:17;;;;;;;;;;;22.60;50.90;;;;;;5032025;28;1365;-70
2021/12/11 12:44:44;;;;;;;;;;;22.50;50.80;;;;;;5046704;28;1485;-70
2021/12/11 12:47:10;;;;;;;;;;;22.60;50.90;;;;;;5047926;28;1337;-70
2021/12/11 12:49:36;;;;;;;;;;;22.60;50.90;;;;;;5032470;28;1477;-70
2021/12/11 12:52:05;;;;;;;;;;;22.60;50.90;;;;;;5030524;28;1255;-70
2021/12/11 12:54:31;;;;;;;;;;;22.60;50.90;;;;;;5030895;28;1959;-71
2021/12/11 12:57:01;;;;;;;;;;;22.50;50.80;;;;;;5032243;28;1158;-71
2021/12/11 12:59:29;;;;;;;;;;;22.50;50.90;;;;;;5019611;28;1069;-71
2021/12/11 13:01:56;;;;;;;;;;;22.60;50.90;;;;;;5031835;28;1418;-70
2021/12/11 13:04:23;;;;;;;;;;;22.50;50.90;;;;;;5033639;28;1422;-71
2021/12/11 13:06:51;;;;;;;;;;;22.50;50.90;;;;;;5035592;28;1075;-71
2021/12/11 13:09:22;;;;;;;;;;;22.50;50.90;;;;;;5035704;28;1234;-71
2021/12/11 13:11:50;;;;;;;;;;;22.50;50.90;;;;;;5035115;28;1381;-70
2021/12/11 13:14:15;;;;;;;;;;;22.50;50.90;;;;;;5034462;28;1902;-71
2021/12/11 13:16:42;;;;;;;;;;;22.50;50.90;;;;;;5035719;28;1307;-71
2021/12/11 13:19:09;;;;;;;;;;;22.50;50.90;;;;;;5049855;28;1840;-70
2021/12/11 13:21:39;;;;;;;;;;;22.50;51.00;;;;;;5029258;28;1309;-69
2021/12/11 13:24:05;;;;;;;;;;;22.50;51.00;;;;;;5035383;28;1331;-69
2021/12/11 13:26:31;;;;;;;;;;;22.50;51.00;;;;;;5030759;28;909;-69
2021/12/11 13:28:58;;;;;;;;;;;22.50;51.00;;;;;;5035069;28;1139;-70
2021/12/11 13:31:25;;;;;;;;;;;22.50;51.10;;;;;;5030049;28;1428;-70
2021/12/11 13:33:50;;;;;;;;;;;22.50;51.10;;;;;;5034168;28;1898;-70
2021/12/11 13:36:18;;;;;;;;;;;22.40;51.10;;;;;;5035052;28;1270;-71
2021/12/11 13:38:43;;;;;;;;;;;22.40;51.20;;;;;;5035261;28;1265;-70
2021/12/11 13:41:10;;;;;;;;;;;22.40;51.20;;;;;;5034765;28;1218;-70
2021/12/11 13:43:36;;;;;;;;;;;22.40;51.30;;;;;;5050541;28;1337;-70
2021/12/11 13:46:01;;;;;;;;;;;22.40;51.30;;;;;;5035075;28;1326;-70
2021/12/11 13:48:27;;;;;;;;;;;22.30;51.30;;;;;;5050431;28;1291;-70
2021/12/11 13:50:54;;;;;;;;;;;22.30;51.40;;;;;;5050537;28;1337;-71
2021/12/11 13:53:20;;;;;;;;;;;22.30;51.40;;;;;;5034781;28;1965;-71
2021/12/11 13:55:46;;;;;;;;;;;22.30;51.50;;;;;;5035010;28;1367;-71
2021/12/11 13:58:12;;;;;;;;;;;22.30;51.50;;;;;;5050280;28;1063;-70
2021/12/11 14:00:49;;;;;;;;;;;22.30;51.60;;;;;;5034649;28;1386;-70
2021/12/11 14:03:15;;;;;;;;;;;22.20;51.60;;;;;;5034431;28;1366;-70
2021/12/11 14:05:40;;;;;;;;;;;22.20;51.60;;;;;;5050214;28;1087;-70
2021/12/11 14:08:09;;;;;;;;;;;22.20;51.60;;;;;;5050112;28;1196;-70
2021/12/11 14:10:35;;;;;;;;;;;22.20;51.60;;;;;;5033499;28;1371;-70
2021/12/11 14:13:02;;;;;;;;;;;22.20;51.70;;;;;;5033090;28;1898;-70
2021/12/11 14:15:27;;;;;;;;;;;22.20;51.70;;;;;;5030778;28;1365;-71
2021/12/11 14:17:53;;;;;;;;;;;22.20;51.80;;;;;;5031575;28;1284;-70
2021/12/11 14:20:19;;;;;;;;;;;22.10;51.70;;;;;;5034696;28;1351;-70
2021/12/11 14:22:44;;;;;;;;;;;22.10;51.80;;;;;;5033971;28;1139;-69
2021/12/11 14:25:10;;;;;;;;;;;22.10;51.70;;;;;;5032888;28;1466;-69
2021/12/11 14:27:36;;;;;;;;;;;22.10;51.80;;;;;;5033055;28;1370;-70
2021/12/11 14:30:01;;;;;;;;;;;22.10;51.90;;;;;;5034633;28;1318;-69
2021/12/11 14:32:28;;;;;;;;;;;22.10;51.90;;;;;;5033861;28;1663;-70
2021/12/11 14:34:54;;;;;;;;;;;22.00;51.90;;;;;;5032992;28;1894;-69
2021/12/11 14:37:19;;;;;;;;;;;22.00;52.00;;;;;;5032985;28;1304;-70
2021/12/11 14:39:48;;;;;;;;;;;22.00;52.00;;;;;;5034113;28;1179;-69
2021/12/11 14:42:15;;;;;;;;;;;22.00;52.00;;;;;;5033625;28;1321;-69
2021/12/11 14:44:40;;;;;;;;;;;22.00;52.10;;;;;;5033920;28;1338;-70
2021/12/11 14:47:06;;;;;;;;;;;21.90;52.00;;;;;;5034052;28;1251;-69